Fire Weather Observation
Issued by NWS Grand Junction, CO

Home | Current Version | Previous Version | Graphics & Text | Print | Product List | Glossary On
Versions: 1 2 3 4 5 6 7 8 9 10 11 12 13 14 15 16 17 18 19 20 21 22 23 24 25 26 27 28 29 30 31 32 33 34 35 36 37 38 39 40 41 42 43 44 45 46 47 48 49 50
000
SHUS65 KGJT 182022
FWOGJT

DAILY FIRE WEATHER OBSERVATION
NATIONAL WEATHER SERVICE GRAND JUNCTION CO
212 PM MDT SAT APR 18 2015

STATE OF THE WEATHER (W)               3
DRY BULB TEMPERATURE                   42   DEGREES FAHRENHEIT
RELATIVE HUMIDITY (RH)                 85   PERCENT
LIGHTNING ACTIVITY LEVEL
  (LAL - MIDNIGHT TO 2 PM)             1
WIND DIRECTION                         090  DEGREES (C IF CALM)
WIND SPEED                             3    MPH
MAX TEMP (2 PM - 2 PM)                 43   DEGREES FAHRENHEIT
MIN TEMP (2 PM - 2 PM)                 31   DEGREES FAHRENHEIT
MAX RH (2 PM - 2 PM)                   100  PERCENT
MIN RH (2 PM - 2 PM)                   85   PERCENT
PCPN DURATION                          12.5 HOURS
PCPN AMT (2 PM - 2 PM)                 0.20 INCHES
LAL (2 PM - 2 PM)                      1

$$

METAR KGJT 181953Z 10003KT 10SM OVC014 06/03 A3001 RMK AO2
      SLP156 T00560033



USA.gov is the U.S. government's official web portal to all federal, state and local government web resources and services.